createdAt,value
2022-12-06T00:01:24.853Z,12.85
2022-12-06T00:03:54.068Z,12.57
2022-12-06T00:06:23.777Z,12.70
2022-12-06T00:08:50.512Z,11.65
2022-12-06T00:11:19.727Z,12.45
2022-12-06T00:13:46.994Z,11.93
2022-12-06T00:16:16.228Z,11.57
2022-12-06T00:18:44.433Z,11.15
2022-12-06T00:21:16.797Z,10.93
2022-12-06T00:23:48.655Z,10.05
2022-12-06T00:26:15.588Z,10.75
2022-12-06T00:28:42.445Z,9.88
2022-12-06T00:31:12.321Z,9.95
2022-12-06T00:33:38.806Z,9.13
2022-12-06T00:36:08.256Z,8.77
2022-12-06T00:38:35.031Z,8.93
2022-12-06T00:41:04.738Z,8.73
2022-12-06T00:43:32.315Z,8.07
2022-12-06T00:45:59.210Z,9.48
2022-12-06T00:48:28.644Z,9.30
2022-12-06T00:50:55.411Z,9.25
2022-12-06T00:53:22.572Z,9.52
2022-12-06T00:55:49.088Z,9.45
2022-12-06T00:58:15.855Z,9.65
2022-12-06T01:00:42.706Z,10.48
2022-12-06T01:03:09.881Z,8.95
2022-12-06T01:05:50.400Z,10.43
2022-12-06T01:08:18.502Z,10.63
2022-12-06T01:10:54.430Z,10.65
2022-12-06T01:13:20.855Z,10.40
2022-12-06T01:15:47.542Z,10.93
2022-12-06T01:18:14.312Z,11.20
2022-12-06T01:20:40.732Z,11.35
2022-12-06T01:23:07.318Z,10.88
2022-12-06T01:25:36.115Z,10.35
2022-12-06T01:28:02.709Z,9.13
2022-12-06T01:30:29.331Z,10.68
2022-12-06T01:32:55.803Z,9.85
2022-12-06T01:35:22.418Z,10.43
2022-12-06T01:37:48.845Z,9.23
2022-12-06T01:40:15.600Z,9.95
2022-12-06T01:42:42.012Z,9.40
2022-12-06T01:45:10.187Z,10.13
2022-12-06T01:47:41.535Z,9.43
2022-12-06T01:50:23.737Z,9.00
2022-12-06T01:52:53.588Z,9.32
2022-12-06T01:55:22.487Z,9.60
2022-12-06T01:57:51.370Z,9.23
2022-12-06T02:00:18.232Z,9.40
2022-12-06T02:02:45.162Z,8.95
2022-12-06T02:05:13.079Z,9.60
2022-12-06T02:07:40.666Z,8.43
2022-12-06T02:10:07.797Z,9.40
2022-12-06T02:12:34.447Z,8.27
2022-12-06T02:15:00.916Z,8.18
2022-12-06T02:17:40.194Z,7.85
2022-12-06T02:20:22.413Z,8.77
2022-12-06T02:23:31.750Z,8.43
2022-12-06T02:26:16.595Z,7.88
2022-12-06T02:29:40.173Z,8.35
2022-12-06T02:32:57.192Z,8.00
2022-12-06T02:35:34.645Z,7.90
2022-12-06T02:38:32.813Z,8.07
2022-12-06T02:41:05.076Z,7.95
2022-12-06T02:43:43.854Z,7.32
2022-12-06T02:46:13.330Z,7.45
2022-12-06T02:48:41.953Z,8.02
2022-12-06T02:51:13.337Z,8.50
2022-12-06T02:53:44.841Z,8.50
2022-12-06T02:56:13.034Z,8.10
2022-12-06T02:58:39.541Z,9.10
2022-12-06T03:01:27.484Z,9.02
2022-12-06T03:03:58.315Z,9.95
2022-12-06T03:06:52.641Z,8.75
2022-12-06T03:09:36.815Z,9.50
2022-12-06T03:12:18.844Z,9.10
2022-12-06T03:15:14.414Z,8.50
2022-12-06T03:18:01.507Z,8.57
2022-12-06T03:20:42.713Z,9.40
2022-12-06T03:23:16.842Z,9.45
2022-12-06T03:25:46.169Z,9.63
2022-12-06T03:28:15.328Z,8.90
2022-12-06T03:30:46.617Z,8.38
2022-12-06T03:33:15.654Z,8.57
2022-12-06T03:35:44.861Z,9.15
2022-12-06T03:38:21.959Z,8.88
2022-12-06T03:40:51.813Z,9.20
2022-12-06T03:43:18.937Z,8.73
2022-12-06T03:46:04.705Z,8.65
2022-12-06T03:48:38.115Z,8.23
2022-12-06T03:51:08.760Z,7.45
2022-12-06T03:53:35.186Z,6.78
2022-12-06T03:56:01.750Z,7.65
2022-12-06T03:58:28.233Z,6.57
2022-12-06T04:00:54.649Z,6.80
2022-12-06T04:03:21.163Z,7.13
2022-12-06T04:05:48.130Z,6.93
2022-12-06T04:08:14.673Z,6.93
2022-12-06T04:10:41.141Z,7.72
2022-12-06T04:13:08.787Z,6.95
2022-12-06T04:15:37.886Z,7.18
2022-12-06T04:18:16.460Z,6.50
2022-12-06T04:21:22.747Z,6.80
2022-12-06T04:23:51.604Z,6.63
2022-12-06T04:26:21.485Z,7.25
2022-12-06T04:29:07.561Z,6.30
2022-12-06T04:31:52.562Z,6.68
2022-12-06T04:34:37.686Z,6.45
2022-12-06T04:37:22.981Z,6.60
2022-12-06T04:39:49.416Z,6.78
2022-12-06T04:42:34.952Z,6.68
2022-12-06T04:45:01.413Z,6.10
2022-12-06T04:47:27.840Z,6.78
2022-12-06T04:49:54.268Z,6.85
2022-12-06T04:52:20.744Z,6.13
2022-12-06T04:54:47.298Z,6.60
2022-12-06T04:57:15.762Z,6.13
2022-12-06T04:59:43.582Z,6.97
2022-12-06T05:02:13.306Z,6.05
2022-12-06T05:04:39.948Z,6.38
2022-12-06T05:07:06.743Z,6.88
2022-12-06T05:09:33.376Z,5.82
2022-12-06T05:11:59.779Z,6.20
2022-12-06T05:14:26.263Z,6.25
2022-12-06T05:16:52.973Z,6.85
2022-12-06T05:19:19.461Z,6.47
2022-12-06T05:21:47.169Z,6.40
2022-12-06T05:24:14.227Z,6.40
2022-12-06T05:26:41.344Z,6.40
2022-12-06T05:29:07.935Z,6.70
2022-12-06T05:31:34.589Z,5.85
2022-12-06T05:34:01.100Z,6.40
2022-12-06T05:36:28.046Z,6.07
2022-12-06T05:38:55.799Z,5.88
2022-12-06T05:41:23.183Z,6.47
2022-12-06T05:43:50.056Z,5.78
2022-12-06T05:46:16.837Z,6.50
2022-12-06T05:48:43.282Z,5.82
2022-12-06T05:51:09.754Z,5.97
2022-12-06T05:53:36.176Z,6.03
2022-12-06T05:56:05.022Z,5.68
2022-12-06T05:58:31.476Z,6.07
2022-12-06T06:00:57.912Z,6.30
2022-12-06T06:03:24.607Z,6.10
2022-12-06T06:05:53.664Z,5.75
2022-12-06T06:08:20.338Z,5.53
2022-12-06T06:10:46.797Z,6.15
2022-12-06T06:13:13.250Z,6.78
2022-12-06T06:15:39.843Z,5.85
2022-12-06T06:18:06.532Z,6.28
2022-12-06T06:20:33.044Z,6.07
2022-12-06T06:22:59.495Z,5.95
2022-12-06T06:25:26.067Z,6.10
2022-12-06T06:27:53.192Z,6.07
2022-12-06T06:30:19.638Z,5.80
2022-12-06T06:32:46.223Z,7.63
2022-12-06T06:35:12.893Z,6.28
2022-12-06T06:37:39.305Z,7.53
2022-12-06T06:40:06.230Z,6.18
2022-12-06T06:42:32.881Z,6.65
2022-12-06T06:44:59.340Z,6.50
2022-12-06T06:47:25.779Z,6.38
2022-12-06T06:49:52.216Z,6.60
2022-12-06T06:52:19.999Z,6.40
2022-12-06T06:54:46.589Z,6.00
2022-12-06T06:57:17.544Z,5.82
2022-12-06T06:59:45.412Z,7.15
2022-12-06T07:02:17.371Z,5.80
2022-12-06T07:04:44.666Z,6.07
2022-12-06T07:07:16.441Z,6.20
2022-12-06T07:09:47.379Z,5.50
2022-12-06T07:12:13.801Z,5.90
2022-12-06T07:14:40.316Z,6.07
2022-12-06T07:17:06.982Z,6.30
2022-12-06T07:19:33.462Z,6.32
2022-12-06T07:21:59.877Z,6.38
2022-12-06T07:24:26.307Z,6.45
2022-12-06T07:26:53.772Z,5.65
2022-12-06T07:29:20.341Z,5.43
2022-12-06T07:31:46.777Z,7.22
2022-12-06T07:34:13.356Z,6.30
2022-12-06T07:36:39.796Z,6.40
2022-12-06T07:39:11.593Z,6.20
2022-12-06T07:41:59.252Z,6.35
2022-12-06T07:44:44.051Z,8.95
2022-12-06T07:47:10.461Z,6.97
2022-12-06T07:49:39.034Z,6.95
2022-12-06T07:52:08.724Z,10.50
2022-12-06T07:54:35.267Z,9.48
2022-12-06T07:57:01.688Z,8.30
2022-12-06T07:59:28.265Z,10.38
2022-12-06T08:01:54.964Z,8.60
2022-12-06T08:04:21.521Z,8.70
2022-12-06T08:06:48.001Z,6.80
2022-12-06T08:09:14.582Z,7.75
2022-12-06T08:11:41.021Z,7.00
2022-12-06T08:14:07.614Z,6.72
2022-12-06T08:16:34.233Z,6.22
2022-12-06T08:19:00.856Z,5.68
2022-12-06T08:21:27.341Z,6.43
2022-12-06T08:23:54.854Z,5.68
2022-12-06T08:26:22.807Z,5.47
2022-12-06T08:28:49.472Z,6.88
2022-12-06T08:31:23.272Z,5.22
2022-12-06T08:33:50.426Z,5.75
2022-12-06T08:36:20.118Z,4.97
2022-12-06T08:38:48.813Z,6.47
2022-12-06T08:41:33.894Z,6.30
2022-12-06T08:44:01.673Z,5.97
2022-12-06T08:46:29.692Z,5.82
2022-12-06T08:48:56.487Z,7.47
2022-12-06T08:51:23.295Z,6.50
2022-12-06T08:53:49.792Z,6.10
2022-12-06T08:56:16.429Z,6.05
2022-12-06T08:58:43.259Z,7.03
2022-12-06T09:01:18.202Z,5.18
2022-12-06T09:03:44.796Z,7.10
2022-12-06T09:06:12.287Z,11.38
2022-12-06T09:08:38.885Z,5.55
2022-12-06T09:11:06.797Z,7.53
2022-12-06T09:13:34.578Z,6.85
2022-12-06T09:16:04.568Z,7.35
2022-12-06T09:18:31.120Z,5.85
2022-12-06T09:20:57.565Z,5.88
2022-12-06T09:23:24.008Z,6.28
2022-12-06T09:25:50.467Z,6.68
2022-12-06T09:28:17.312Z,5.35
2022-12-06T09:30:43.864Z,4.75
2022-12-06T09:33:10.285Z,10.55
2022-12-06T09:35:37.037Z,15.07
2022-12-06T09:38:04.075Z,14.48
2022-12-06T09:40:54.763Z,12.43
2022-12-06T09:43:32.541Z,6.50
2022-12-06T09:46:24.189Z,6.00
2022-12-06T09:49:24.870Z,6.03
2022-12-06T09:52:08.110Z,6.47
2022-12-06T09:55:00.227Z,7.47
2022-12-06T09:57:40.859Z,7.90
2022-12-06T10:00:17.753Z,9.82
2022-12-06T10:02:55.926Z,10.50
2022-12-06T10:05:36.590Z,11.90
2022-12-06T10:08:26.900Z,6.63
2022-12-06T10:11:16.975Z,5.65
2022-12-06T10:14:26.932Z,7.80
2022-12-06T10:17:18.338Z,7.53
2022-12-06T10:19:58.887Z,8.20
2022-12-06T10:22:45.624Z,6.13
2022-12-06T10:25:42.495Z,6.30
2022-12-06T10:28:16.379Z,6.07
2022-12-06T10:30:52.662Z,6.72
2022-12-06T10:33:42.649Z,7.00
2022-12-06T10:36:10.862Z,6.50
2022-12-06T10:38:43.592Z,8.00
2022-12-06T10:41:22.534Z,7.63
2022-12-06T10:44:04.895Z,7.47
2022-12-06T10:47:04.982Z,7.68
2022-12-06T10:49:35.717Z,8.27
2022-12-06T10:52:33.988Z,7.88
2022-12-06T10:55:13.276Z,6.63
2022-12-06T10:57:55.297Z,10.13
2022-12-06T11:00:26.595Z,7.00
2022-12-06T11:03:11.130Z,8.13
2022-12-06T11:08:13.643Z,6.82
2022-12-06T11:10:44.023Z,6.63
2022-12-06T11:13:16.943Z,6.68
2022-12-06T11:15:51.398Z,5.68
2022-12-06T11:18:18.341Z,6.93
2022-12-06T11:20:51.304Z,6.63
2022-12-06T11:24:11.955Z,7.15
2022-12-06T11:26:46.953Z,5.22
2022-12-06T11:29:18.738Z,5.72
2022-12-06T11:31:57.529Z,5.65
2022-12-06T11:34:43.710Z,5.70
2022-12-06T11:37:17.572Z,5.80
2022-12-06T11:39:44.613Z,5.50
2022-12-06T11:42:13.186Z,5.72
2022-12-06T11:44:49.947Z,5.00
2022-12-06T11:47:21.932Z,5.72
2022-12-06T11:49:51.736Z,5.45
2022-12-06T11:52:37.270Z,5.15
2022-12-06T11:55:13.851Z,4.72
2022-12-06T11:57:52.355Z,5.75
2022-12-06T12:00:25.591Z,5.75
2022-12-06T12:02:54.428Z,4.35
2022-12-06T12:05:25.316Z,5.30
2022-12-06T12:08:00.698Z,4.65
2022-12-06T12:10:38.077Z,5.78
2022-12-06T12:13:36.194Z,5.72
2022-12-06T12:16:11.228Z,4.90
2022-12-06T12:18:41.461Z,5.07
2022-12-06T12:21:08.150Z,5.13
2022-12-06T12:23:37.596Z,4.32
2022-12-06T12:26:12.594Z,4.53
2022-12-06T12:28:40.665Z,4.63
2022-12-06T12:31:18.708Z,4.97
2022-12-06T12:33:45.550Z,4.45
2022-12-06T12:36:25.313Z,5.20
2022-12-06T12:39:03.151Z,4.70
2022-12-06T12:41:38.600Z,5.03
2022-12-06T12:47:18.990Z,6.13
2022-12-06T12:50:00.918Z,5.28
2022-12-06T12:52:38.327Z,6.05
2022-12-06T12:55:20.270Z,5.38
2022-12-06T12:57:49.688Z,4.05
2022-12-06T13:00:18.870Z,4.57
2022-12-06T13:02:50.858Z,4.68
2022-12-06T13:05:33.426Z,5.03
2022-12-06T13:08:11.302Z,4.60
2022-12-06T13:10:39.443Z,4.63
2022-12-06T13:13:14.581Z,4.57
2022-12-06T13:15:47.239Z,4.97
2022-12-06T13:18:21.532Z,4.65
2022-12-06T13:20:50.008Z,4.38
2022-12-06T13:23:19.459Z,4.93
2022-12-06T13:26:16.873Z,4.97
2022-12-06T13:28:51.226Z,5.20
2022-12-06T13:31:22.063Z,5.05
2022-12-06T13:33:52.979Z,4.65
2022-12-06T13:36:21.175Z,5.30
2022-12-06T13:38:47.804Z,5.80
2022-12-06T13:42:02.838Z,5.15
2022-12-06T13:45:04.806Z,4.80
2022-12-06T13:47:34.800Z,5.25
2022-12-06T13:50:04.845Z,5.05
2022-12-06T13:52:43.521Z,6.28
2022-12-06T13:55:25.375Z,5.80
2022-12-06T13:58:00.111Z,6.35
2022-12-06T14:00:29.674Z,5.93
2022-12-06T14:03:17.714Z,6.03
2022-12-06T14:06:15.262Z,5.43
2022-12-06T14:08:46.242Z,5.40
2022-12-06T14:11:22.946Z,5.72
2022-12-06T14:13:55.436Z,5.72
2022-12-06T14:16:39.653Z,5.30
2022-12-06T14:19:29.071Z,4.97
2022-12-06T14:22:17.923Z,5.63
2022-12-06T14:25:02.394Z,6.18
2022-12-06T14:27:31.171Z,6.47
2022-12-06T14:30:02.417Z,4.82
2022-12-06T14:32:40.676Z,6.00
2022-12-06T14:35:13.376Z,5.57
2022-12-06T14:37:45.333Z,5.65
2022-12-06T14:43:16.824Z,4.97
2022-12-06T14:45:44.730Z,5.55
2022-12-06T14:48:12.891Z,7.15
2022-12-06T14:51:00.327Z,5.75
2022-12-06T14:53:34.983Z,7.10
2022-12-06T14:56:06.785Z,5.40
2022-12-06T14:58:35.982Z,10.05
2022-12-06T15:01:06.892Z,5.85
2022-12-06T15:03:35.630Z,6.03
2022-12-06T15:06:18.489Z,6.28
2022-12-06T15:08:55.173Z,5.60
2022-12-06T15:11:48.242Z,5.32
2022-12-06T15:14:17.824Z,5.80
2022-12-06T15:16:54.691Z,6.80
2022-12-06T15:19:21.161Z,6.10
2022-12-06T15:21:52.217Z,5.72
2022-12-06T15:24:21.803Z,4.72
2022-12-06T15:26:48.987Z,5.82
2022-12-06T15:29:15.661Z,7.13
2022-12-06T15:31:50.375Z,7.05
2022-12-06T15:34:26.038Z,5.57
2022-12-06T15:37:15.113Z,7.03
2022-12-06T15:39:40.318Z,6.18
2022-12-06T15:42:21.664Z,6.07
2022-12-06T15:44:50.241Z,5.78
2022-12-06T15:47:18.512Z,6.00
2022-12-06T15:49:45.508Z,6.10
2022-12-06T15:52:18.748Z,5.50
2022-12-06T15:54:45.804Z,6.47
2022-12-06T15:57:12.373Z,6.70
2022-12-06T15:59:38.803Z,6.50
2022-12-06T16:02:14.019Z,7.05
2022-12-06T16:04:41.529Z,6.30
2022-12-06T16:07:08.092Z,6.30
2022-12-06T16:09:34.583Z,6.95
2022-12-06T16:12:01.045Z,5.78
2022-12-06T16:14:27.668Z,6.85
2022-12-06T16:16:54.143Z,6.63
2022-12-06T16:19:20.770Z,5.88
2022-12-06T16:21:55.969Z,5.55
2022-12-06T16:24:22.500Z,5.45
2022-12-06T16:26:49.405Z,6.90
2022-12-06T16:29:19.188Z,7.15
2022-12-06T16:31:45.919Z,6.47
2022-12-06T16:34:12.658Z,8.70
2022-12-06T16:36:58.583Z,8.52
2022-12-06T16:39:25.584Z,7.03
2022-12-06T16:41:52.161Z,9.23
2022-12-06T16:44:18.825Z,6.05
2022-12-06T16:46:46.413Z,7.00
2022-12-06T16:49:45.366Z,8.15
2022-12-06T16:52:08.628Z,13.85
2022-12-06T16:54:35.785Z,9.15
2022-12-06T16:57:02.306Z,6.40
2022-12-06T16:59:28.770Z,5.03
2022-12-06T17:01:55.339Z,5.35
2022-12-06T17:04:22.226Z,5.60
2022-12-06T17:06:48.740Z,5.65
2022-12-06T17:09:15.521Z,5.07
2022-12-06T17:12:01.066Z,5.65
2022-12-06T17:14:27.647Z,5.82
2022-12-06T17:16:55.325Z,6.25
2022-12-06T17:19:27.929Z,6.38
2022-12-06T17:21:54.644Z,6.35
2022-12-06T17:24:22.861Z,5.60
2022-12-06T17:26:49.373Z,5.70
2022-12-06T17:29:16.225Z,5.28
2022-12-06T17:31:43.032Z,5.35
2022-12-06T17:34:13.410Z,5.57
2022-12-06T17:36:40.324Z,6.40
2022-12-06T17:39:10.774Z,7.30
2022-12-06T17:41:56.177Z,6.65
2022-12-06T17:44:22.855Z,7.00
2022-12-06T17:46:49.908Z,11.82
2022-12-06T17:49:19.323Z,9.20
2022-12-06T17:51:45.844Z,7.90
2022-12-06T17:54:13.020Z,8.68
2022-12-06T17:56:41.785Z,8.23
2022-12-06T17:59:18.525Z,8.15
2022-12-06T18:02:13.643Z,9.30
2022-12-06T18:04:31.415Z,9.75
2022-12-06T18:06:58.426Z,9.13
2022-12-06T18:09:25.209Z,10.00
2022-12-06T18:11:51.709Z,9.82
2022-12-06T18:14:18.676Z,9.35
2022-12-06T18:16:48.556Z,8.43
2022-12-06T18:19:18.775Z,10.57
2022-12-06T18:21:45.400Z,8.10
2022-12-06T18:24:24.706Z,7.70
2022-12-06T18:26:54.276Z,8.18
2022-12-06T18:29:22.914Z,7.78
2022-12-06T18:31:51.618Z,8.70
2022-12-06T18:34:18.754Z,11.35
2022-12-06T18:36:45.277Z,9.32
2022-12-06T18:39:15.971Z,11.82
2022-12-06T18:41:46.031Z,11.57
2022-12-06T18:44:12.865Z,9.90
2022-12-06T18:46:42.591Z,9.40
2022-12-06T18:49:11.834Z,8.82
2022-12-06T18:51:39.217Z,7.18
2022-12-06T18:54:06.583Z,8.68
2022-12-06T18:56:34.184Z,8.40
2022-12-06T18:59:02.555Z,8.38
2022-12-06T19:01:32.181Z,7.97
2022-12-06T19:04:01.002Z,9.23
2022-12-06T19:06:31.808Z,9.60
2022-12-06T19:09:02.154Z,8.02
2022-12-06T19:11:28.788Z,8.15
2022-12-06T19:13:57.282Z,8.45
2022-12-06T19:16:35.769Z,8.43
2022-12-06T19:19:04.670Z,9.25
2022-12-06T19:21:33.124Z,9.02
2022-12-06T19:24:00.350Z,7.95
2022-12-06T19:26:28.357Z,9.10
2022-12-06T19:28:55.452Z,9.63
2022-12-06T19:31:23.250Z,10.07
2022-12-06T19:33:54.227Z,12.07
2022-12-06T19:36:23.589Z,9.00
2022-12-06T19:38:59.028Z,8.88
2022-12-06T19:41:26.024Z,8.25
2022-12-06T19:44:11.213Z,9.15
2022-12-06T19:46:38.589Z,9.55
2022-12-06T19:49:07.251Z,10.32
2022-12-06T19:51:41.935Z,9.70
2022-12-06T19:54:10.570Z,9.65
2022-12-06T19:56:38.772Z,9.27
2022-12-06T19:59:13.798Z,9.65
2022-12-06T20:01:43.074Z,10.65
2022-12-06T20:04:15.569Z,12.70
2022-12-06T20:06:42.128Z,10.90
2022-12-06T20:09:08.608Z,11.07
2022-12-06T20:11:59.005Z,8.68
2022-12-06T20:14:25.615Z,9.25
2022-12-06T20:16:52.624Z,10.38
2022-12-06T20:19:19.584Z,10.65
2022-12-06T20:21:46.001Z,8.57
2022-12-06T20:24:14.510Z,9.38
2022-12-06T20:26:42.413Z,9.57
2022-12-06T20:29:10.310Z,11.38
2022-12-06T20:31:37.021Z,9.02
2022-12-06T20:34:09.018Z,11.20
2022-12-06T20:36:40.053Z,10.05
2022-12-06T20:39:06.921Z,10.15
2022-12-06T20:41:33.952Z,9.90
2022-12-06T20:44:02.363Z,10.00
2022-12-06T20:46:32.069Z,9.25
2022-12-06T20:49:03.637Z,8.98
2022-12-06T20:51:30.852Z,8.38
2022-12-06T20:54:00.700Z,9.80
2022-12-06T20:56:30.977Z,10.88
2022-12-06T20:58:58.972Z,9.35
2022-12-06T21:01:28.329Z,10.35
2022-12-06T21:03:54.966Z,8.10
2022-12-06T21:06:23.370Z,8.23
2022-12-06T21:08:50.360Z,6.72
2022-12-06T21:11:23.062Z,7.25
2022-12-06T21:13:53.850Z,8.27
2022-12-06T21:16:22.962Z,8.80
2022-12-06T21:18:58.212Z,7.68
2022-12-06T21:21:31.294Z,8.38
2022-12-06T21:24:06.647Z,7.13
2022-12-06T21:26:34.102Z,9.68
2022-12-06T21:29:01.079Z,7.97
2022-12-06T21:31:29.439Z,6.80
2022-12-06T21:33:56.643Z,10.15
2022-12-06T21:36:23.329Z,7.20
2022-12-06T21:38:49.779Z,6.30
2022-12-06T21:41:16.893Z,6.57
2022-12-06T21:43:43.321Z,5.20
2022-12-06T21:46:15.998Z,4.93
2022-12-06T21:48:43.261Z,4.80
2022-12-06T21:51:11.681Z,5.38
2022-12-06T21:53:38.855Z,4.78
2022-12-06T21:56:20.004Z,5.32
2022-12-06T21:58:47.545Z,3.42
2022-12-06T22:01:17.336Z,3.95
2022-12-06T22:03:46.901Z,3.60
2022-12-06T22:06:13.444Z,3.42
2022-12-06T22:08:41.329Z,2.80
2022-12-06T22:11:13.145Z,2.92
2022-12-06T22:13:39.585Z,3.88
2022-12-06T22:16:08.664Z,3.40
2022-12-06T22:18:42.697Z,3.03
2022-12-06T22:21:14.988Z,2.70
2022-12-06T22:23:41.694Z,3.05
2022-12-06T22:26:10.222Z,2.92
2022-12-06T22:28:36.656Z,3.67
2022-12-06T22:31:16.408Z,3.42
2022-12-06T22:33:43.213Z,3.45
2022-12-06T22:36:10.587Z,3.33
2022-12-06T22:38:37.347Z,3.50
2022-12-06T22:41:04.942Z,3.33
2022-12-06T22:43:31.850Z,3.85
2022-12-06T22:46:07.379Z,3.85
2022-12-06T22:48:34.017Z,4.72
2022-12-06T22:51:18.929Z,5.25
2022-12-06T22:53:47.810Z,5.00
2022-12-06T22:56:15.137Z,6.13
2022-12-06T22:58:41.736Z,6.32
2022-12-06T23:01:17.143Z,7.32
2022-12-06T23:03:45.762Z,6.93
2022-12-06T23:06:13.169Z,6.93
2022-12-06T23:08:39.630Z,7.10
2022-12-06T23:11:09.300Z,7.45
2022-12-06T23:13:36.285Z,7.75
2022-12-06T23:16:06.072Z,7.07
2022-12-06T23:18:34.483Z,7.05
2022-12-06T23:21:05.847Z,6.47
2022-12-06T23:23:32.761Z,6.57
2022-12-06T23:26:09.142Z,5.68
2022-12-06T23:28:35.994Z,5.70
2022-12-06T23:31:11.358Z,5.55
2022-12-06T23:33:38.252Z,6.50
2022-12-06T23:36:13.728Z,6.50
2022-12-06T23:38:40.546Z,5.57
2022-12-06T23:41:10.245Z,5.25
2022-12-06T23:43:37.059Z,6.78
2022-12-06T23:46:07.729Z,5.93
2022-12-06T23:48:34.899Z,5.38
2022-12-06T23:51:08.545Z,5.72
2022-12-06T23:53:35.154Z,6.10
2022-12-06T23:56:04.841Z,5.72
2022-12-06T23:58:31.366Z,5.63
